sensor_id;sensor_type;location;lat;lon;timestamp;temperature;humidity
19920;DHT22;10122;50.074;19.920;2023-07-13T00:00:17;23.50;99.90
19920;DHT22;10122;50.074;19.920;2023-07-13T00:02:44;23.50;99.90
19920;DHT22;10122;50.074;19.920;2023-07-13T00:05:10;23.40;99.90
19920;DHT22;10122;50.074;19.920;2023-07-13T00:07:36;23.50;99.90
19920;DHT22;10122;50.074;19.920;2023-07-13T00:10:03;23.50;99.90
19920;DHT22;10122;50.074;19.920;2023-07-13T00:12:31;23.50;99.90
19920;DHT22;10122;50.074;19.920;2023-07-13T00:14:59;23.40;99.90
19920;DHT22;10122;50.074;19.920;2023-07-13T00:17:26;23.40;99.90
19920;DHT22;10122;50.074;19.920;2023-07-13T00:19:52;23.40;99.90
19920;DHT22;10122;50.074;19.920;2023-07-13T00:22:19;23.40;99.90
19920;DHT22;10122;50.074;19.920;2023-07-13T00:24:44;23.40;99.90
19920;DHT22;10122;50.074;19.920;2023-07-13T00:27:11;23.40;99.90
19920;DHT22;10122;50.074;19.920;2023-07-13T00:29:37;23.40;99.90
19920;DHT22;10122;50.074;19.920;2023-07-13T00:32:04;23.30;99.90
19920;DHT22;10122;50.074;19.920;2023-07-13T00:34:30;23.30;99.90
19920;DHT22;10122;50.074;19.920;2023-07-13T00:36:56;23.20;99.90
19920;DHT22;10122;50.074;19.920;2023-07-13T00:39:21;23.20;99.90
19920;DHT22;10122;50.074;19.920;2023-07-13T00:41:48;23.10;99.90
19920;DHT22;10122;50.074;19.920;2023-07-13T00:44:15;23.10;99.90
19920;DHT22;10122;50.074;19.920;2023-07-13T00:46:41;23.00;99.90
19920;DHT22;10122;50.074;19.920;2023-07-13T00:49:10;23.00;99.90
19920;DHT22;10122;50.074;19.920;2023-07-13T00:51:48;22.90;99.90
19920;DHT22;10122;50.074;19.920;2023-07-13T00:54:21;22.80;99.90
19920;DHT22;10122;50.074;19.920;2023-07-13T00:56:51;22.80;99.90
19920;DHT22;10122;50.074;19.920;2023-07-13T00:59:18;22.80;99.90
19920;DHT22;10122;50.074;19.920;2023-07-13T01:01:45;22.70;99.90
19920;DHT22;10122;50.074;19.920;2023-07-13T01:04:11;22.70;99.90
19920;DHT22;10122;50.074;19.920;2023-07-13T01:06:39;22.70;99.90
19920;DHT22;10122;50.074;19.920;2023-07-13T01:09:07;22.70;99.90
19920;DHT22;10122;50.074;19.920;2023-07-13T01:11:33;22.70;99.90
19920;DHT22;10122;50.074;19.920;2023-07-13T01:14:00;22.70;99.90
19920;DHT22;10122;50.074;19.920;2023-07-13T01:16:37;22.70;99.90
19920;DHT22;10122;50.074;19.920;2023-07-13T01:19:27;22.70;99.90
19920;DHT22;10122;50.074;19.920;2023-07-13T01:21:55;22.70;99.90
19920;DHT22;10122;50.074;19.920;2023-07-13T01:24:21;22.70;99.90
19920;DHT22;10122;50.074;19.920;2023-07-13T01:26:47;22.70;99.90
19920;DHT22;10122;50.074;19.920;2023-07-13T01:29:12;22.70;99.90
19920;DHT22;10122;50.074;19.920;2023-07-13T01:31:38;22.70;99.90
19920;DHT22;10122;50.074;19.920;2023-07-13T01:34:03;22.70;99.90
19920;DHT22;10122;50.074;19.920;2023-07-13T01:36:30;22.70;99.90
19920;DHT22;10122;50.074;19.920;2023-07-13T01:38:56;22.60;99.90
19920;DHT22;10122;50.074;19.920;2023-07-13T01:41:22;22.60;99.90
19920;DHT22;10122;50.074;19.920;2023-07-13T01:43:47;22.60;99.90
19920;DHT22;10122;50.074;19.920;2023-07-13T01:46:13;22.60;99.90
19920;DHT22;10122;50.074;19.920;2023-07-13T01:48:39;22.50;99.90
19920;DHT22;10122;50.074;19.920;2023-07-13T01:51:04;22.50;99.90
19920;DHT22;10122;50.074;19.920;2023-07-13T01:53:30;22.50;99.90
19920;DHT22;10122;50.074;19.920;2023-07-13T01:55:56;22.50;99.90
19920;DHT22;10122;50.074;19.920;2023-07-13T01:58:22;22.50;99.90
19920;DHT22;10122;50.074;19.920;2023-07-13T02:00:51;22.50;99.90
19920;DHT22;10122;50.074;19.920;2023-07-13T02:03:17;22.50;99.90
19920;DHT22;10122;50.074;19.920;2023-07-13T02:05:44;22.40;99.90
19920;DHT22;10122;50.074;19.920;2023-07-13T02:08:10;22.50;99.90
19920;DHT22;10122;50.074;19.920;2023-07-13T02:10:37;22.50;99.90
19920;DHT22;10122;50.074;19.920;2023-07-13T02:13:05;22.40;99.90
19920;DHT22;10122;50.074;19.920;2023-07-13T02:15:31;22.40;99.90
19920;DHT22;10122;50.074;19.920;2023-07-13T02:17:57;22.40;99.90
19920;DHT22;10122;50.074;19.920;2023-07-13T02:20:24;22.30;99.90
19920;DHT22;10122;50.074;19.920;2023-07-13T02:22:50;22.30;99.90
19920;DHT22;10122;50.074;19.920;2023-07-13T02:25:15;22.30;99.90
19920;DHT22;10122;50.074;19.920;2023-07-13T02:27:41;22.30;99.90
19920;DHT22;10122;50.074;19.920;2023-07-13T02:30:08;22.20;99.90
19920;DHT22;10122;50.074;19.920;2023-07-13T02:32:34;22.20;99.90
19920;DHT22;10122;50.074;19.920;2023-07-13T02:35:00;22.10;99.90
19920;DHT22;10122;50.074;19.920;2023-07-13T02:37:26;22.10;99.90
19920;DHT22;10122;50.074;19.920;2023-07-13T02:39:52;22.10;99.90
19920;DHT22;10122;50.074;19.920;2023-07-13T02:42:17;22.10;99.90
19920;DHT22;10122;50.074;19.920;2023-07-13T02:44:43;22.00;99.90
19920;DHT22;10122;50.074;19.920;2023-07-13T02:47:09;21.90;99.90
19920;DHT22;10122;50.074;19.920;2023-07-13T02:49:34;22.00;99.90
19920;DHT22;10122;50.074;19.920;2023-07-13T02:52:01;21.90;99.90
19920;DHT22;10122;50.074;19.920;2023-07-13T02:54:27;21.90;99.90
19920;DHT22;10122;50.074;19.920;2023-07-13T02:56:53;21.80;99.90
19920;DHT22;10122;50.074;19.920;2023-07-13T02:59:19;21.80;99.90
19920;DHT22;10122;50.074;19.920;2023-07-13T03:01:44;21.70;99.90
19920;DHT22;10122;50.074;19.920;2023-07-13T03:04:10;21.70;99.90
19920;DHT22;10122;50.074;19.920;2023-07-13T03:06:36;21.80;99.90
19920;DHT22;10122;50.074;19.920;2023-07-13T03:09:02;21.80;99.90
19920;DHT22;10122;50.074;19.920;2023-07-13T03:11:29;21.80;99.90
19920;DHT22;10122;50.074;19.920;2023-07-13T03:13:56;21.80;99.90
19920;DHT22;10122;50.074;19.920;2023-07-13T03:16:22;21.80;99.90
19920;DHT22;10122;50.074;19.920;2023-07-13T03:18:48;21.80;99.90
19920;DHT22;10122;50.074;19.920;2023-07-13T03:21:14;21.80;99.90
19920;DHT22;10122;50.074;19.920;2023-07-13T03:23:39;21.90;99.90
19920;DHT22;10122;50.074;19.920;2023-07-13T03:26:09;22.10;99.90
19920;DHT22;10122;50.074;19.920;2023-07-13T03:28:35;22.40;99.90
19920;DHT22;10122;50.074;19.920;2023-07-13T03:31:07;22.90;99.90
19920;DHT22;10122;50.074;19.920;2023-07-13T03:33:34;23.40;99.90
19920;DHT22;10122;50.074;19.920;2023-07-13T03:35:59;23.60;99.90
19920;DHT22;10122;50.074;19.920;2023-07-13T03:38:25;23.80;99.90
19920;DHT22;10122;50.074;19.920;2023-07-13T03:40:52;23.70;99.90
19920;DHT22;10122;50.074;19.920;2023-07-13T03:43:17;23.60;99.90
19920;DHT22;10122;50.074;19.920;2023-07-13T03:45:43;23.60;99.90
19920;DHT22;10122;50.074;19.920;2023-07-13T03:48:09;23.80;99.90
19920;DHT22;10122;50.074;19.920;2023-07-13T03:50:35;23.70;99.90
19920;DHT22;10122;50.074;19.920;2023-07-13T03:53:00;23.60;99.90
19920;DHT22;10122;50.074;19.920;2023-07-13T03:55:26;23.40;99.90
19920;DHT22;10122;50.074;19.920;2023-07-13T03:57:57;23.30;99.90
19920;DHT22;10122;50.074;19.920;2023-07-13T04:00:23;23.20;99.90
19920;DHT22;10122;50.074;19.920;2023-07-13T04:02:50;23.10;99.90
19920;DHT22;10122;50.074;19.920;2023-07-13T04:05:16;23.00;99.90
19920;DHT22;10122;50.074;19.920;2023-07-13T04:07:41;23.00;99.90
19920;DHT22;10122;50.074;19.920;2023-07-13T04:10:07;22.90;99.90
19920;DHT22;10122;50.074;19.920;2023-07-13T04:12:33;22.90;99.90
19920;DHT22;10122;50.074;19.920;2023-07-13T04:14:59;22.80;99.90
19920;DHT22;10122;50.074;19.920;2023-07-13T04:17:25;22.80;99.90
19920;DHT22;10122;50.074;19.920;2023-07-13T04:19:50;22.80;99.90
19920;DHT22;10122;50.074;19.920;2023-07-13T04:22:16;22.80;99.90
19920;DHT22;10122;50.074;19.920;2023-07-13T04:24:42;22.80;99.90
19920;DHT22;10122;50.074;19.920;2023-07-13T04:27:07;22.80;99.90
19920;DHT22;10122;50.074;19.920;2023-07-13T04:29:33;22.90;99.90
19920;DHT22;10122;50.074;19.920;2023-07-13T04:31:59;23.00;99.90
19920;DHT22;10122;50.074;19.920;2023-07-13T04:34:25;23.10;99.90
19920;DHT22;10122;50.074;19.920;2023-07-13T04:36:50;23.20;99.90
19920;DHT22;10122;50.074;19.920;2023-07-13T04:39:16;23.20;99.90
19920;DHT22;10122;50.074;19.920;2023-07-13T04:41:42;23.30;99.90
19920;DHT22;10122;50.074;19.920;2023-07-13T04:44:08;23.30;99.90
19920;DHT22;10122;50.074;19.920;2023-07-13T04:46:33;23.30;99.90
19920;DHT22;10122;50.074;19.920;2023-07-13T04:48:59;23.30;99.90
19920;DHT22;10122;50.074;19.920;2023-07-13T04:51:26;23.40;99.90
19920;DHT22;10122;50.074;19.920;2023-07-13T04:53:52;23.40;99.90
19920;DHT22;10122;50.074;19.920;2023-07-13T04:56:18;23.50;99.90
19920;DHT22;10122;50.074;19.920;2023-07-13T04:58:45;23.60;99.90
19920;DHT22;10122;50.074;19.920;2023-07-13T05:01:10;23.70;99.90
19920;DHT22;10122;50.074;19.920;2023-07-13T05:03:36;23.80;99.90
19920;DHT22;10122;50.074;19.920;2023-07-13T05:06:07;23.90;99.90
19920;DHT22;10122;50.074;19.920;2023-07-13T05:08:35;24.00;99.90
19920;DHT22;10122;50.074;19.920;2023-07-13T05:11:03;24.00;99.90
19920;DHT22;10122;50.074;19.920;2023-07-13T05:13:29;24.10;99.90
19920;DHT22;10122;50.074;19.920;2023-07-13T05:16:00;24.20;99.90
19920;DHT22;10122;50.074;19.920;2023-07-13T05:18:27;24.40;99.90
19920;DHT22;10122;50.074;19.920;2023-07-13T05:21:04;24.50;99.90
19920;DHT22;10122;50.074;19.920;2023-07-13T05:23:31;24.70;99.90
19920;DHT22;10122;50.074;19.920;2023-07-13T05:25:57;24.70;99.90
19920;DHT22;10122;50.074;19.920;2023-07-13T05:28:23;24.80;99.90
19920;DHT22;10122;50.074;19.920;2023-07-13T05:30:49;24.90;99.90
19920;DHT22;10122;50.074;19.920;2023-07-13T05:33:16;25.00;99.90
19920;DHT22;10122;50.074;19.920;2023-07-13T05:35:41;25.00;99.90
19920;DHT22;10122;50.074;19.920;2023-07-13T05:38:07;25.10;99.90
19920;DHT22;10122;50.074;19.920;2023-07-13T05:40:33;25.20;99.90
19920;DHT22;10122;50.074;19.920;2023-07-13T05:42:59;25.30;99.90
19920;DHT22;10122;50.074;19.920;2023-07-13T05:45:24;25.30;99.90
19920;DHT22;10122;50.074;19.920;2023-07-13T05:47:51;25.40;99.90
19920;DHT22;10122;50.074;19.920;2023-07-13T05:50:17;25.40;99.90
19920;DHT22;10122;50.074;19.920;2023-07-13T05:52:43;25.30;99.90
19920;DHT22;10122;50.074;19.920;2023-07-13T05:55:08;25.40;99.90
19920;DHT22;10122;50.074;19.920;2023-07-13T05:57:34;25.50;99.90
19920;DHT22;10122;50.074;19.920;2023-07-13T06:00:00;25.60;99.90
19920;DHT22;10122;50.074;19.920;2023-07-13T06:02:26;25.60;99.90
19920;DHT22;10122;50.074;19.920;2023-07-13T06:04:52;25.80;99.90
19920;DHT22;10122;50.074;19.920;2023-07-13T06:07:17;26.00;99.90
19920;DHT22;10122;50.074;19.920;2023-07-13T06:09:43;26.20;99.90
19920;DHT22;10122;50.074;19.920;2023-07-13T06:12:09;26.50;99.90
19920;DHT22;10122;50.074;19.920;2023-07-13T06:14:35;26.60;99.90
19920;DHT22;10122;50.074;19.920;2023-07-13T06:17:01;26.80;99.90
19920;DHT22;10122;50.074;19.920;2023-07-13T06:19:26;27.10;99.90
19920;DHT22;10122;50.074;19.920;2023-07-13T06:21:52;27.20;99.90
19920;DHT22;10122;50.074;19.920;2023-07-13T06:24:18;27.30;99.90
19920;DHT22;10122;50.074;19.920;2023-07-13T06:26:43;27.30;99.90
19920;DHT22;10122;50.074;19.920;2023-07-13T06:29:09;27.40;99.90
19920;DHT22;10122;50.074;19.920;2023-07-13T06:31:35;27.40;99.90
19920;DHT22;10122;50.074;19.920;2023-07-13T06:34:00;27.50;99.90
19920;DHT22;10122;50.074;19.920;2023-07-13T06:36:26;27.60;99.90
19920;DHT22;10122;50.074;19.920;2023-07-13T06:38:52;27.70;99.90
19920;DHT22;10122;50.074;19.920;2023-07-13T06:41:17;27.60;99.90
19920;DHT22;10122;50.074;19.920;2023-07-13T06:43:43;27.70;99.90
19920;DHT22;10122;50.074;19.920;2023-07-13T06:46:09;27.90;99.90
19920;DHT22;10122;50.074;19.920;2023-07-13T06:48:35;28.00;99.90
19920;DHT22;10122;50.074;19.920;2023-07-13T06:51:02;28.20;99.90
19920;DHT22;10122;50.074;19.920;2023-07-13T06:53:27;28.20;99.90
19920;DHT22;10122;50.074;19.920;2023-07-13T06:55:53;28.20;99.90
19920;DHT22;10122;50.074;19.920;2023-07-13T06:58:19;28.10;99.90
19920;DHT22;10122;50.074;19.920;2023-07-13T07:00:46;28.20;99.90
19920;DHT22;10122;50.074;19.920;2023-07-13T07:03:12;28.30;99.90
19920;DHT22;10122;50.074;19.920;2023-07-13T07:05:37;28.20;99.90
19920;DHT22;10122;50.074;19.920;2023-07-13T07:08:03;28.30;99.90
19920;DHT22;10122;50.074;19.920;2023-07-13T07:10:30;28.50;99.90
19920;DHT22;10122;50.074;19.920;2023-07-13T07:12:57;28.40;99.90
19920;DHT22;10122;50.074;19.920;2023-07-13T07:15:22;28.30;99.90
19920;DHT22;10122;50.074;19.920;2023-07-13T07:17:48;28.30;99.90
19920;DHT22;10122;50.074;19.920;2023-07-13T07:20:14;28.50;99.90
19920;DHT22;10122;50.074;19.920;2023-07-13T07:22:39;28.80;99.90
19920;DHT22;10122;50.074;19.920;2023-07-13T07:25:05;29.00;99.90
19920;DHT22;10122;50.074;19.920;2023-07-13T07:27:31;29.10;99.90
19920;DHT22;10122;50.074;19.920;2023-07-13T07:29:57;29.20;99.90
19920;DHT22;10122;50.074;19.920;2023-07-13T07:32:23;29.30;99.90
19920;DHT22;10122;50.074;19.920;2023-07-13T07:34:49;29.30;99.90
19920;DHT22;10122;50.074;19.920;2023-07-13T07:37:15;29.30;99.90
19920;DHT22;10122;50.074;19.920;2023-07-13T07:39:41;29.30;99.90
19920;DHT22;10122;50.074;19.920;2023-07-13T07:42:07;29.30;99.90
19920;DHT22;10122;50.074;19.920;2023-07-13T07:44:33;28.90;99.90
19920;DHT22;10122;50.074;19.920;2023-07-13T07:47:00;28.70;99.90
19920;DHT22;10122;50.074;19.920;2023-07-13T07:49:27;28.70;99.90
19920;DHT22;10122;50.074;19.920;2023-07-13T07:51:52;28.60;99.90
19920;DHT22;10122;50.074;19.920;2023-07-13T07:54:18;28.70;99.90
19920;DHT22;10122;50.074;19.920;2023-07-13T07:56:44;28.80;99.90
19920;DHT22;10122;50.074;19.920;2023-07-13T07:59:09;29.00;99.90
19920;DHT22;10122;50.074;19.920;2023-07-13T08:01:36;28.90;99.90
19920;DHT22;10122;50.074;19.920;2023-07-13T08:04:01;28.50;99.90
19920;DHT22;10122;50.074;19.920;2023-07-13T08:06:27;28.40;99.90
19920;DHT22;10122;50.074;19.920;2023-07-13T08:08:54;28.40;99.90
19920;DHT22;10122;50.074;19.920;2023-07-13T08:11:21;28.40;99.90
19920;DHT22;10122;50.074;19.920;2023-07-13T08:13:47;28.70;99.90
19920;DHT22;10122;50.074;19.920;2023-07-13T08:16:12;29.00;99.90
19920;DHT22;10122;50.074;19.920;2023-07-13T08:18:38;29.40;99.90
19920;DHT22;10122;50.074;19.920;2023-07-13T08:21:06;29.60;99.90
19920;DHT22;10122;50.074;19.920;2023-07-13T08:23:33;29.80;99.90
19920;DHT22;10122;50.074;19.920;2023-07-13T08:25:59;30.00;99.90
19920;DHT22;10122;50.074;19.920;2023-07-13T08:28:27;30.10;99.90
19920;DHT22;10122;50.074;19.920;2023-07-13T08:30:53;30.10;99.90
19920;DHT22;10122;50.074;19.920;2023-07-13T08:33:20;30.30;99.90
19920;DHT22;10122;50.074;19.920;2023-07-13T08:35:50;30.40;99.90
19920;DHT22;10122;50.074;19.920;2023-07-13T08:38:16;30.50;99.90
19920;DHT22;10122;50.074;19.920;2023-07-13T08:40:43;30.60;99.90
19920;DHT22;10122;50.074;19.920;2023-07-13T08:43:13;30.50;99.90
19920;DHT22;10122;50.074;19.920;2023-07-13T08:45:50;30.60;99.90
19920;DHT22;10122;50.074;19.920;2023-07-13T08:48:31;30.80;99.90
19920;DHT22;10122;50.074;19.920;2023-07-13T08:51:09;30.90;99.90
19920;DHT22;10122;50.074;19.920;2023-07-13T08:53:40;30.90;99.90
19920;DHT22;10122;50.074;19.920;2023-07-13T08:56:18;30.90;99.90
19920;DHT22;10122;50.074;19.920;2023-07-13T08:58:48;30.80;99.90
19920;DHT22;10122;50.074;19.920;2023-07-13T09:04:08;30.60;99.90
19920;DHT22;10122;50.074;19.920;2023-07-13T09:12:09;30.40;99.90
19920;DHT22;10122;50.074;19.920;2023-07-13T09:14:43;30.40;99.90
19920;DHT22;10122;50.074;19.920;2023-07-13T09:17:19;30.30;99.90
19920;DHT22;10122;50.074;19.920;2023-07-13T09:19:53;30.20;99.90
19920;DHT22;10122;50.074;19.920;2023-07-13T09:22:21;30.10;99.90
19920;DHT22;10122;50.074;19.920;2023-07-13T09:24:58;29.80;99.90
19920;DHT22;10122;50.074;19.920;2023-07-13T09:27:43;29.60;99.90
19920;DHT22;10122;50.074;19.920;2023-07-13T09:32:51;29.30;99.90
19920;DHT22;10122;50.074;19.920;2023-07-13T09:35:21;29.10;99.90
19920;DHT22;10122;50.074;19.920;2023-07-13T09:37:47;29.00;99.90
19920;DHT22;10122;50.074;19.920;2023-07-13T09:40:40;28.60;99.90
19920;DHT22;10122;50.074;19.920;2023-07-13T09:43:12;28.40;99.90
19920;DHT22;10122;50.074;19.920;2023-07-13T09:45:39;28.30;99.90
19920;DHT22;10122;50.074;19.920;2023-07-13T09:48:13;28.20;99.90
19920;DHT22;10122;50.074;19.920;2023-07-13T09:50:39;28.10;99.90
19920;DHT22;10122;50.074;19.920;2023-07-13T09:53:12;27.90;99.90
19920;DHT22;10122;50.074;19.920;2023-07-13T09:55:40;27.90;99.90
19920;DHT22;10122;50.074;19.920;2023-07-13T10:00:44;27.90;99.90
19920;DHT22;10122;50.074;19.920;2023-07-13T10:03:22;27.90;99.90
19920;DHT22;10122;50.074;19.920;2023-07-13T10:05:51;27.90;99.90
19920;DHT22;10122;50.074;19.920;2023-07-13T10:08:18;27.90;99.90
19920;DHT22;10122;50.074;19.920;2023-07-13T10:10:45;27.80;99.90
19920;DHT22;10122;50.074;19.920;2023-07-13T10:13:32;27.80;99.90
19920;DHT22;10122;50.074;19.920;2023-07-13T10:16:01;27.80;99.90
19920;DHT22;10122;50.074;19.920;2023-07-13T10:18:28;27.70;99.90
19920;DHT22;10122;50.074;19.920;2023-07-13T10:21:22;27.70;99.90
19920;DHT22;10122;50.074;19.920;2023-07-13T10:24:15;27.70;99.90
19920;DHT22;10122;50.074;19.920;2023-07-13T10:29:22;27.60;99.90
19920;DHT22;10122;50.074;19.920;2023-07-13T10:31:49;27.60;99.90
19920;DHT22;10122;50.074;19.920;2023-07-13T10:34:15;27.60;99.90
19920;DHT22;10122;50.074;19.920;2023-07-13T10:36:44;27.50;99.90
19920;DHT22;10122;50.074;19.920;2023-07-13T10:39:19;27.50;99.90
19920;DHT22;10122;50.074;19.920;2023-07-13T10:41:48;27.20;99.90
19920;DHT22;10122;50.074;19.920;2023-07-13T10:44:27;27.00;99.90
19920;DHT22;10122;50.074;19.920;2023-07-13T10:46:59;26.80;99.90
19920;DHT22;10122;50.074;19.920;2023-07-13T10:49:28;26.60;99.90
19920;DHT22;10122;50.074;19.920;2023-07-13T10:51:55;26.60;99.90
19920;DHT22;10122;50.074;19.920;2023-07-13T10:57:19;26.50;99.90
19920;DHT22;10122;50.074;19.920;2023-07-13T11:02:30;26.30;99.90
19920;DHT22;10122;50.074;19.920;2023-07-13T11:04:56;26.10;99.90
19920;DHT22;10122;50.074;19.920;2023-07-13T11:07:30;25.80;99.90
19920;DHT22;10122;50.074;19.920;2023-07-13T11:10:04;25.70;99.90
19920;DHT22;10122;50.074;19.920;2023-07-13T11:12:50;25.60;99.90
19920;DHT22;10122;50.074;19.920;2023-07-13T11:15:32;25.60;99.90
19920;DHT22;10122;50.074;19.920;2023-07-13T11:18:02;25.40;99.90
19920;DHT22;10122;50.074;19.920;2023-07-13T11:20:38;25.30;99.90
19920;DHT22;10122;50.074;19.920;2023-07-13T11:25:42;25.00;99.90
19920;DHT22;10122;50.074;19.920;2023-07-13T11:38:39;24.20;99.90
19920;DHT22;10122;50.074;19.920;2023-07-13T11:41:27;24.00;99.90
19920;DHT22;10122;50.074;19.920;2023-07-13T11:44:01;23.70;99.90
19920;DHT22;10122;50.074;19.920;2023-07-13T11:46:28;23.60;99.90
19920;DHT22;10122;50.074;19.920;2023-07-13T11:48:54;23.40;99.90
19920;DHT22;10122;50.074;19.920;2023-07-13T11:51:21;23.10;99.90
19920;DHT22;10122;50.074;19.920;2023-07-13T11:53:49;23.00;99.90
19920;DHT22;10122;50.074;19.920;2023-07-13T11:56:16;22.90;99.90
19920;DHT22;10122;50.074;19.920;2023-07-13T11:58:42;22.80;99.90
19920;DHT22;10122;50.074;19.920;2023-07-13T12:01:21;22.70;99.90
19920;DHT22;10122;50.074;19.920;2023-07-13T12:03:48;22.70;99.90
19920;DHT22;10122;50.074;19.920;2023-07-13T12:06:30;22.70;99.90
19920;DHT22;10122;50.074;19.920;2023-07-13T12:09:01;22.60;99.90
19920;DHT22;10122;50.074;19.920;2023-07-13T12:11:29;22.50;99.90
19920;DHT22;10122;50.074;19.920;2023-07-13T12:13:55;22.50;99.90
19920;DHT22;10122;50.074;19.920;2023-07-13T12:16:30;22.50;99.90
19920;DHT22;10122;50.074;19.920;2023-07-13T12:18:59;22.60;99.90
19920;DHT22;10122;50.074;19.920;2023-07-13T12:21:41;22.60;99.90
19920;DHT22;10122;50.074;19.920;2023-07-13T12:24:17;22.50;99.90
19920;DHT22;10122;50.074;19.920;2023-07-13T12:26:44;22.50;99.90
19920;DHT22;10122;50.074;19.920;2023-07-13T12:29:16;22.60;99.90
19920;DHT22;10122;50.074;19.920;2023-07-13T12:31:44;22.60;99.90
19920;DHT22;10122;50.074;19.920;2023-07-13T12:34:12;22.60;99.90
19920;DHT22;10122;50.074;19.920;2023-07-13T12:37:00;22.50;99.90
19920;DHT22;10122;50.074;19.920;2023-07-13T12:39:33;22.50;99.90
19920;DHT22;10122;50.074;19.920;2023-07-13T12:45:01;22.50;99.90
19920;DHT22;10122;50.074;19.920;2023-07-13T12:47:27;22.60;99.90
19920;DHT22;10122;50.074;19.920;2023-07-13T12:49:59;22.60;99.90
19920;DHT22;10122;50.074;19.920;2023-07-13T12:52:34;22.60;99.90
19920;DHT22;10122;50.074;19.920;2023-07-13T12:55:11;22.40;99.90
19920;DHT22;10122;50.074;19.920;2023-07-13T13:00:29;22.40;99.90
19920;DHT22;10122;50.074;19.920;2023-07-13T13:03:18;22.50;99.90
19920;DHT22;10122;50.074;19.920;2023-07-13T13:05:45;22.50;99.90
19920;DHT22;10122;50.074;19.920;2023-07-13T13:08:12;22.60;99.90
19920;DHT22;10122;50.074;19.920;2023-07-13T13:10:38;22.70;99.90
19920;DHT22;10122;50.074;19.920;2023-07-13T13:13:04;22.70;99.90
19920;DHT22;10122;50.074;19.920;2023-07-13T13:15:30;22.80;99.90
19920;DHT22;10122;50.074;19.920;2023-07-13T13:17:56;22.90;99.90
19920;DHT22;10122;50.074;19.920;2023-07-13T13:20:24;22.90;99.90
19920;DHT22;10122;50.074;19.920;2023-07-13T13:22:51;22.80;99.90
19920;DHT22;10122;50.074;19.920;2023-07-13T13:25:18;22.80;99.90
19920;DHT22;10122;50.074;19.920;2023-07-13T13:27:45;22.80;99.90
19920;DHT22;10122;50.074;19.920;2023-07-13T13:30:16;22.80;99.90
19920;DHT22;10122;50.074;19.920;2023-07-13T13:32:45;22.80;99.90
19920;DHT22;10122;50.074;19.920;2023-07-13T13:35:18;22.90;99.90
19920;DHT22;10122;50.074;19.920;2023-07-13T13:37:44;22.90;99.90
19920;DHT22;10122;50.074;19.920;2023-07-13T13:40:15;23.00;99.90
19920;DHT22;10122;50.074;19.920;2023-07-13T13:42:41;23.00;99.90
19920;DHT22;10122;50.074;19.920;2023-07-13T13:45:09;23.00;99.90
19920;DHT22;10122;50.074;19.920;2023-07-13T13:47:35;22.90;99.90
19920;DHT22;10122;50.074;19.920;2023-07-13T13:50:09;22.90;99.90
19920;DHT22;10122;50.074;19.920;2023-07-13T13:52:36;23.00;99.90
19920;DHT22;10122;50.074;19.920;2023-07-13T13:55:01;23.00;99.90
19920;DHT22;10122;50.074;19.920;2023-07-13T13:57:27;23.00;99.90
19920;DHT22;10122;50.074;19.920;2023-07-13T13:59:54;23.00;99.90
19920;DHT22;10122;50.074;19.920;2023-07-13T14:02:26;23.00;99.90
19920;DHT22;10122;50.074;19.920;2023-07-13T14:04:55;23.10;99.90
19920;DHT22;10122;50.074;19.920;2023-07-13T14:07:21;23.10;99.90
19920;DHT22;10122;50.074;19.920;2023-07-13T14:09:47;23.10;99.90
19920;DHT22;10122;50.074;19.920;2023-07-13T14:12:13;23.20;99.90
19920;DHT22;10122;50.074;19.920;2023-07-13T14:14:39;23.30;99.90
19920;DHT22;10122;50.074;19.920;2023-07-13T14:17:17;23.30;99.90
19920;DHT22;10122;50.074;19.920;2023-07-13T14:19:43;23.30;99.90
19920;DHT22;10122;50.074;19.920;2023-07-13T14:22:09;23.40;99.90
19920;DHT22;10122;50.074;19.920;2023-07-13T14:24:34;23.50;99.90
19920;DHT22;10122;50.074;19.920;2023-07-13T14:27:00;23.60;99.90
19920;DHT22;10122;50.074;19.920;2023-07-13T14:29:26;23.50;99.90
19920;DHT22;10122;50.074;19.920;2023-07-13T14:31:51;23.50;99.90
19920;DHT22;10122;50.074;19.920;2023-07-13T14:34:17;23.50;99.90
19920;DHT22;10122;50.074;19.920;2023-07-13T14:36:48;23.50;99.90
19920;DHT22;10122;50.074;19.920;2023-07-13T14:39:20;23.50;99.90
19920;DHT22;10122;50.074;19.920;2023-07-13T14:41:53;23.50;99.90
19920;DHT22;10122;50.074;19.920;2023-07-13T14:44:38;23.50;99.90
19920;DHT22;10122;50.074;19.920;2023-07-13T14:47:05;23.50;99.90
19920;DHT22;10122;50.074;19.920;2023-07-13T14:49:40;23.50;99.90
19920;DHT22;10122;50.074;19.920;2023-07-13T14:52:19;23.60;99.90
19920;DHT22;10122;50.074;19.920;2023-07-13T14:54:46;23.60;99.90
19920;DHT22;10122;50.074;19.920;2023-07-13T14:57:13;23.60;99.90
19920;DHT22;10122;50.074;19.920;2023-07-13T14:59:39;23.70;99.90
19920;DHT22;10122;50.074;19.920;2023-07-13T15:02:31;23.80;99.90
19920;DHT22;10122;50.074;19.920;2023-07-13T15:04:58;23.80;99.90
19920;DHT22;10122;50.074;19.920;2023-07-13T15:07:24;23.90;99.90
19920;DHT22;10122;50.074;19.920;2023-07-13T15:09:50;23.90;99.90
19920;DHT22;10122;50.074;19.920;2023-07-13T15:12:16;23.90;99.90
19920;DHT22;10122;50.074;19.920;2023-07-13T15:14:42;23.80;99.90
19920;DHT22;10122;50.074;19.920;2023-07-13T15:19:49;23.70;99.90
19920;DHT22;10122;50.074;19.920;2023-07-13T15:22:15;23.70;99.90
19920;DHT22;10122;50.074;19.920;2023-07-13T15:24:41;23.70;99.90
19920;DHT22;10122;50.074;19.920;2023-07-13T15:27:11;23.70;99.90
19920;DHT22;10122;50.074;19.920;2023-07-13T15:29:37;23.70;99.90
19920;DHT22;10122;50.074;19.920;2023-07-13T15:32:04;23.70;99.90
19920;DHT22;10122;50.074;19.920;2023-07-13T15:34:30;23.70;99.90
19920;DHT22;10122;50.074;19.920;2023-07-13T15:36:56;23.80;99.90
19920;DHT22;10122;50.074;19.920;2023-07-13T15:39:22;23.90;99.90
19920;DHT22;10122;50.074;19.920;2023-07-13T15:41:48;24.00;99.90
19920;DHT22;10122;50.074;19.920;2023-07-13T15:46:50;24.00;99.90
19920;DHT22;10122;50.074;19.920;2023-07-13T15:49:16;24.00;99.90
19920;DHT22;10122;50.074;19.920;2023-07-13T15:51:41;24.00;99.90
19920;DHT22;10122;50.074;19.920;2023-07-13T15:54:13;24.00;99.90
19920;DHT22;10122;50.074;19.920;2023-07-13T15:56:40;23.90;99.90
19920;DHT22;10122;50.074;19.920;2023-07-13T15:59:10;23.80;99.90
19920;DHT22;10122;50.074;19.920;2023-07-13T16:01:38;23.70;99.90
19920;DHT22;10122;50.074;19.920;2023-07-13T16:04:04;23.80;99.90
19920;DHT22;10122;50.074;19.920;2023-07-13T16:06:36;23.70;99.90